Cynthiana, Kentucky
Current Conditions -  °F | °C
As of 10:55 AM on Thursday 27 Nov 2014 (Local Time) from KIOB Reporting Station
Overcast Overcast  
Wind Chill: 25°   Ceiling: 1800
Heat Index: 32°   Visibility: 10mi
Dew Point: 27°   Wind: 8mph
Humidity: 80%   Direction: 340°NNW
Pressure: 30.28"   Gusts: NA
Location:  38.39°N, 84.29°W
Report Text: KIOB 271555Z AUTO 34007KT 10SM BKN018 OVC028 00/M03 A3028 RMK AO2
Loading
Personal Weather Stations






























Interactive Weather Map New forecast layout! Learn more

10-Day Weather Forecast

Advertisements
Track Severe Weather on mobile